x

Central Caribbean - 210 Nm Sse Of Kingston, Jamaica (42058) Wave Buoy

6:40 - Sun 20th Aug 2017 All times are EST. -5 hours from GMT.

  • Sig Wave height 6.2ft
  • Swell Direction
  • Average Period 6s
  • Wind
    13mph, 25mph gusts
  • Sea Temp 84°f
  • Sea Pressure 1011.2mb
  • Central Caribbean - 210 Nm Sse Of Kingston, Jamaica
  • Central Caribbean - 210 Nm Sse Of Kingston, Jamaica

More Historic Weather Station data

Upgrade to MSW Pro to gain access to the past 30 days of data for over 8000 Wavebouys and Weather Stations around the globe.

Join

Comparision Forecast

View Surf forecast
   
So 08/20 6:40 6ft  -  6s 13 25 mph 1011.2mb 84f
6:30  -   -   -  18 29 mph 1010.9mb 84f
6:20  -   -   -  13 16 mph 1010.8mb 84f
6:10  -   -   -  13 16 mph 1010.7mb 84f
6:00  -   -   -  13 18 mph 1010.5mb 84f
5:50 7ft 9s 6s 13 16 mph 1010.4mb 84f
5:40  -   -   -  13 18 mph 1010.3mb 84f
5:30  -   -   -  13 16 mph 1010.2mb -
5:20  -   -   -  13 18 mph 1010.1mb 84f
5:10  -   -   -  13 16 mph 1010mb 84f
5:00  -   -   -  13 18 mph 1009.9mb -
4:50 7ft 9s 6s 13 18 mph 1009.8mb 84f
4:40  -   -   -  13 18 mph 1009.8mb 84f
4:30  -   -   -  16 18 mph 1009.7mb 84f
4:20  -   -   -  16 20 mph 1009.6mb 84f
4:10  -   -   -  16 18 mph 1009.6mb 84f
4:00  -   -   -  18 20 mph 1009.5mb 84f
3:50 7.5ft 9s 6s 16 20 mph 1009.6mb 84f
3:40  -   -   -  16 20 mph 1009.7mb 84f
3:30  -   -   -  18 20 mph 1009.7mb 84f
3:20  -   -   -  16 20 mph 1009.9mb 84f
3:10  -   -   -  16 20 mph 1010mb 84f
3:00  -   -   -  18 22 mph 1009.9mb 84f
2:50 8ft 9s 6s 18 22 mph 1010mb 84f
2:40  -   -   -  20 25 mph 1009.9mb 84f
2:30  -   -   -  18 22 mph 1010mb 84f
2:20  -   -   -  20 25 mph 1009.9mb 84f
2:10  -   -   -  20 25 mph 1010mb 84f
2:00  -   -   -  22 27 mph 1010.1mb 84f
1:50 8.5ft 9s 6s 20 25 mph 1010.5mb 84f
1:40  -   -   -  22 27 mph 1010.7mb 84f
1:30  -   -   -  22 29 mph 1010.8mb 84f
1:20  -   -   -  22 29 mph 1010.7mb 84f
1:10  -   -   -  25 29 mph 1010.8mb 84f
1:00  -   -   -  22 29 mph 1010.8mb 84f
12:50 8ft 8s 6s 22 29 mph 1010.7mb 84f
12:40  -   -   -  25 29 mph 1010.8mb 84f
12:30  -   -   -  22 27 mph 1011mb 84f
12:20  -   -   -  22 29 mph 1011.1mb 84f
12:10  -   -   -  20 27 mph 1011.1mb 84f
12:00  -   -   -  22 27 mph 1010.9mb 84f
11:50 9ft 9s 7s 22 27 mph 1011mb 84f
11:40 9ft  -  7s 22 29 mph 1010.9mb 84f
11:30  -   -   -  22 27 mph 1010.9mb 84f
11:20  -   -   -  22 29 mph 1010.9mb 84f
11:10  -   -   -  22 29 mph 1010.8mb 84f
11:00  -   -   -  25 29 mph 1010.8mb 84f
10:50 9ft 10s 6s 25 29 mph 1010.8mb 84f
10:40  -   -   -  22 27 mph 1010.8mb 84f
10:30  -   -   -  25 29 mph 1010.6mb 84f
10:20  -   -   -  25 31 mph 1010.6mb 84f
10:10  -   -   -  25 29 mph 1010.5mb 84f
10:00  -   -   -  25 29 mph 1010.4mb 84f
9:50 9ft 9s 6s 25 29 mph 1010.4mb 84f
9:40 9ft  -  6s 25 34 mph 1010.2mb 84f
9:30  -   -   -  25 29 mph 1010.2mb 84f
9:20  -   -   -  25 29 mph 1010.3mb 84f
9:10  -   -   -  25 31 mph 1010.2mb 84f
9:00  -   -   -  25 31 mph 1010.2mb 84f
8:50 8ft 9s 6s 25 29 mph 1010.1mb 84f
8:40  -   -   -  25 31 mph 1009.9mb 84f
8:30  -   -   -  25 31 mph 1009.7mb 84f
8:20  -   -   -  25 31 mph 1009.2mb 84f
8:10  -   -   -  25 29 mph 1009.1mb 84f
8:00  -   -   -  25 31 mph 1008.9mb 84f
7:50 9ft 8s 6s 25 31 mph 1008.7mb 84f
7:40 9ft  -  6s 25 31 mph 1008.5mb 84f
7:30  -   -   -  22 27 mph 1008.3mb 84f
7:20  -   -   -  22 27 mph 1008mb 84f
7:10  -   -   -  22 25 mph 1007.6mb 84f
7:00  -   -   -  22 27 mph 1007.5mb 84f
6:50 10ft 9s 6s 22 29 mph 1007.5mb 84f
6:40  -   -   -  22 27 mph 1007.6mb 84f
6:30  -   -   -  20 25 mph 1007.3mb 84f
6:20  -   -   -  22 27 mph 1007.3mb 84f
6:10  -   -   -  25 29 mph 1007.1mb 84f
6:00  -   -   -  25 31 mph 1006.8mb 84f
5:50 8.5ft 8s 6s 25 31 mph 1006.7mb 84f
5:40  -   -   -  25 31 mph 1006.8mb 84f
5:30  -   -   -  25 29 mph 1006.9mb 84f
5:20  -   -   -  25 29 mph 1006.6mb 84f
5:10  -   -   -  25 31 mph 1006.1mb 84f
5:00  -   -   -  25 34 mph 1005.7mb 84f
4:50 8ft 8s 6s 22 29 mph 1005.3mb 84f
4:40 8ft  -  6s 22 31 mph 1005.2mb 84f
4:30  -   -   -  29 38 mph 1005.4mb 84f
4:20  -   -   -  25 31 mph 1005.7mb 84f
4:10  -   -   -  22 29 mph 1006mb 84f
4:00  -   -   -  22 29 mph 1005.9mb 84f
3:50 6.5ft 8s 6s 22 29 mph 1006.2mb 84f
3:40  -   -   -  22 29 mph 1006.2mb 84f
3:30  -   -   -  18 25 mph 1006.4mb 84f
3:20  -   -   -  16 20 mph 1006.8mb 84f
3:10  -   -   -  18 25 mph 1006.6mb 84f
3:00  -   -   -  22 31 mph 1006.6mb 84f
2:50 6ft 8s 6s 20 29 mph 1006.7mb 84f
2:40 6ft  -  6s 16 20 mph 1006.5mb 84f
2:30  -   -   -  18 22 mph 1006.8mb 84f
2:20  -   -   -  18 22 mph 1006.9mb 84f
2:10  -   -   -  18 22 mph 1006.8mb 84f
2:00  -   -   -  18 22 mph 1007.1mb 84f
1:50 6ft 8s 6s 18 25 mph 1007mb 84f
1:40 6ft  -  6s 13 18 mph 1007.3mb 84f
1:30  -   -   -  20 29 mph 1007.3mb 84f
1:20  -   -   -  18 27 mph 1007.6mb 84f
1:10  -   -   -  18 25 mph 1008mb 84f
1:00  -   -   -  16 20 mph 1008.2mb 84f
12:30  -   -   -  16 20 mph 1008.5mb 84f
12:20  -   -   -  16 18 mph 1008.7mb 84f
12:10  -   -   -  16 18 mph 1008.8mb 84f
12:00  -   -   -  16 20 mph 1008.7mb 84f
Sa 08/19 11:50 5.5ft 7s 6s 16 18 mph 1008.6mb 84f
11:40  -   -   -  16 20 mph 1008.9mb 84f
11:30  -   -   -  16 20 mph 1009.2mb 84f
11:20  -   -   -  16 20 mph 1009.2mb 84f
11:10  -   -   -  16 20 mph 1009.2mb 84f
11:00  -   -   -  16 20 mph 1009.6mb 84f
10:50 5.5ft 8s 6s 18 22 mph 1009.6mb 84f
10:40  -   -   -  18 20 mph 1009.8mb 84f
10:30  -   -   -  18 22 mph 1009.8mb 85f
10:20  -   -   -  18 22 mph 1009.8mb 84f
10:10  -   -   -  18 22 mph 1009.8mb 85f
10:00  -   -   -  13 18 mph 1009.8mb 85f
9:50 5ft 7s 5s 16 20 mph 1009.6mb 85f
9:40  -   -   -  16 20 mph 1009.5mb 85f
9:30  -   -   -  16 20 mph 1009.5mb 85f
9:20  -   -   -  16 20 mph 1009.5mb 85f
9:10  -   -   -  16 20 mph 1009.5mb 85f
9:00  -   -   -  18 20 mph 1009.6mb 85f
8:50 5.5ft 8s 5s 18 20 mph 1009.5mb 85f
8:40 5.5ft  -  5s 18 22 mph 1009.3mb 85f
8:30  -   -   -  18 22 mph 1009.3mb 85f
8:20  -   -   -  18 20 mph 1009.2mb 85f
8:10  -   -   -  18 20 mph 1009mb 85f
8:00  -   -   -  18 20 mph 1008.9mb 84f
7:50 5.5ft 7s 5s 18 22 mph 1008.8mb 84f
7:40  -   -   -  18 20 mph 1008.6mb 84f
7:30  -   -   -  16 20 mph 1008.5mb -
7:20  -   -   -  18 22 mph 1008.3mb 84f
7:10  -   -   -  18 22 mph 1008.1mb 84f
7:00  -   -   -  18 22 mph 1008mb 84f
6:50 6ft 7s 6s 18 22 mph 1008.1mb 84f
6:40  -   -   -  16 20 mph 1008mb 84f
6:30  -   -   -  16 18 mph 1007.9mb 84f
6:20  -   -   -  13 18 mph 1007.8mb 84f
6:10  -   -   -  16 20 mph 1007.9mb 84f
6:00  -   -   -  16 20 mph 1008mb 84f
5:50 6ft 7s 5s 18 20 mph 1008.1mb 85f
5:40  -   -   -  16 20 mph 1008.2mb 85f
5:30  -   -   -  18 22 mph 1008.2mb 85f
5:20  -   -   -  18 22 mph 1008.4mb 85f
5:10  -   -   -  18 25 mph 1008.4mb 85f
5:00  -   -   -  20 25 mph 1008.3mb 85f
4:50 5.5ft 7s 5s 20 25 mph 1008.2mb 85f
4:40  -   -   -  20 25 mph 1008.3mb 85f
4:30  -   -   -  20 25 mph 1008.5mb 85f
4:20  -   -   -  20 27 mph 1008.5mb 85f
4:10  -   -   -  20 25 mph 1008.7mb 85f
4:00  -   -   -  20 25 mph 1008.7mb 85f
3:50 5.5ft 7s 5s 20 25 mph 1008.7mb 85f
3:40 5.5ft  -  5s 20 22 mph 1008.7mb 85f
3:30  -   -   -  18 22 mph 1008.6mb 85f
3:20  -   -   -  18 25 mph 1008.5mb 85f
3:10  -   -   -  18 22 mph 1008.4mb 85f
3:00  -   -   -  18 22 mph 1008.4mb 85f
2:50 6ft 8s 5s 18 22 mph 1008.5mb 85f
2:40  -   -   -  18 22 mph 1008.3mb 85f
2:30  -   -   -  20 22 mph 1008.3mb -
2:20  -   -   -  18 22 mph 1008.4mb 85f
2:10  -   -   -  20 22 mph 1008.5mb 85f
2:00  -   -   -  18 22 mph 1008.5mb 85f
1:50 6ft 7s 5s 18 22 mph 1008.8mb 85f
1:40  -   -   -  18 22 mph 1008.9mb 85f
1:30  -   -   -  20 25 mph 1009.2mb 85f
1:20  -   -   -  18 22 mph 1009.4mb 85f
1:10  -   -   -  18 22 mph 1009.7mb 85f
1:00  -   -   -  18 22 mph 1009.7mb 85f
12:50 6ft 7s 5s 18 22 mph 1009.8mb 85f
12:40 6ft  -  5s 18 22 mph 1009.8mb 85f
12:30  -   -   -  20 22 mph 1010.1mb 85f
12:20  -   -   -  20 25 mph 1010.1mb 85f
12:10  -   -   -  20 25 mph 1010.3mb 85f
12:00  -   -   -  20 25 mph 1010.6mb 85f
11:50 6.5ft 7s 5s 20 25 mph 1010.8mb 85f
11:40 6.5ft  -  5s 20 25 mph 1011mb 85f
11:30  -   -   -  20 25 mph 1011.2mb 85f
11:20  -   -   -  20 25 mph 1011.3mb 85f
11:10  -   -   -  18 22 mph 1011.2mb 85f
11:00  -   -   -  20 25 mph 1011.2mb 85f
10:50 6ft 7s 5s 20 22 mph 1011.2mb 85f
10:40  -   -   -  20 25 mph 1011.3mb 85f
10:30  -   -   -  20 25 mph 1011.3mb 85f
10:20  -   -   -  20 25 mph 1011.3mb 85f
10:10  -   -   -  20 25 mph 1011.3mb 85f
10:00  -   -   -  20 27 mph 1011.1mb 85f
9:50 6ft 6s 5s 20 27 mph 1011mb 85f
9:40 6ft  -  5s 20 27 mph 1011.1mb 85f
9:30  -   -   -  20 25 mph 1011mb 85f
9:20  -   -   -  18 25 mph 1010.9mb 85f
9:10  -   -   -  20 22 mph 1010.9mb 85f
9:00  -   -   -  20 25 mph 1011mb 85f
8:50 6ft 8s 5s 20 22 mph 1011.2mb 85f
8:40  -   -   -  20 25 mph 1011.1mb 85f
8:30  -   -   -  20 25 mph 1011.1mb 85f
8:20  -   -   -  20 22 mph 1011.1mb 85f
8:10  -   -   -  20 22 mph 1011mb 85f
8:00  -   -   -  20 25 mph 1010.9mb 85f
7:50 6ft 7s 5s 20 25 mph 1010.9mb 85f
7:40  -   -   -  20 25 mph 1011mb 85f
7:30  -   -   -  20 25 mph 1011mb 85f
7:20  -   -   -  20 25 mph 1010.7mb 85f
7:10  -   -   -  20 25 mph 1010.7mb 85f
7:00  -   -   -  20 25 mph 1010.7mb 85f
6:50 6ft 8s 5s 20 27 mph 1010.7mb 85f
6:40  -   -   -  20 25 mph 1010.7mb 85f
6:30  -   -   -  20 25 mph 1010.7mb 85f
6:20  -   -   -  20 25 mph 1010.6mb 85f
6:10  -   -   -  20 25 mph 1010.5mb 85f
6:00  -   -   -  20 25 mph 1010.3mb 85f
5:50 5.5ft 8s 5s 20 25 mph 1010.3mb 85f
5:40 5.5ft  -  5s 22 27 mph 1010.3mb 85f
5:30  -   -   -  20 27 mph 1010.1mb 85f
5:20  -   -   -  20 25 mph 1010mb 85f
5:10  -   -   -  22 27 mph 1009.9mb 85f
5:00  -   -   -  20 25 mph 1009.8mb -
4:50 5.5ft 8s 5s 20 25 mph 1009.7mb 85f
4:40 5.5ft  -  5s 20 25 mph 1009.5mb 85f
4:30  -   -   -  20 25 mph 1009.4mb 85f
4:20  -   -   -  20 25 mph 1009.3mb 85f
4:10  -   -   -  18 22 mph 1009.1mb 85f
4:00  -   -   -  18 20 mph 1009.2mb 85f
3:50 5.5ft 8s 5s 18 20 mph 1009.2mb 85f
3:40 5.5ft  -  5s 16 20 mph 1009.1mb 85f
3:30  -   -   -  18 22 mph 1009.2mb 85f
3:20  -   -   -  18 22 mph 1009.2mb 85f
3:10  -   -   -  18 22 mph 1009.2mb 85f
3:00  -   -   -  18 22 mph 1009.3mb 85f
2:50 5.5ft 8s 5s 18 20 mph 1009.4mb 85f
2:40  -   -   -  18 20 mph 1009.5mb 85f
2:30  -   -   -  18 20 mph 1009.5mb -
2:20  -   -   -  18 20 mph 1009.7mb 85f
2:10  -   -   -  18 20 mph 1009.8mb 85f
2:00  -   -   -  18 22 mph 1010.1mb 85f
1:50 5.5ft 7s 5s 16 20 mph 1010.1mb 85f
1:40  -   -   -  16 20 mph 1010.1mb 85f
1:30  -   -   -  16 20 mph 1010.2mb 85f
1:20  -   -   -  16 20 mph 1010.3mb 85f
1:10  -   -   -  18 20 mph 1010.3mb 85f
1:00  -   -   -  18 25 mph 1010.3mb 85f
12:50 5ft 6s 5s 18 22 mph 1010.4mb 85f
12:40 5ft  -  5s 20 25 mph 1010.6mb 85f
12:30  -   -   -  18 25 mph 1010.6mb 85f
12:20  -   -   -  18 22 mph 1010.8mb 85f
12:10  -   -   -  20 25 mph 1010.9mb 85f
12:00  -   -   -  18 22 mph 1010.9mb 85f
Fr 08/18 11:50 5.5ft 8s 5s 20 25 mph 1010.9mb 85f
11:40 5.5ft  -  5s 18 22 mph 1011.1mb 85f
11:30  -   -   -  18 22 mph 1011.5mb 85f
11:20  -   -   -  18 22 mph 1011.5mb 85f
11:10  -   -   -  18 22 mph 1011.6mb 85f
11:00  -   -   -  18 25 mph 1011.7mb 85f
10:50 5.5ft 7s 5s 18 22 mph 1011.7mb 85f
10:40 5.5ft  -  5s 18 22 mph 1011.9mb 85f
10:30  -   -   -  18 22 mph 1011.9mb 85f
10:20  -   -   -  18 22 mph 1012mb 85f
10:10  -   -   -  18 22 mph 1011.8mb 85f
10:00  -   -   -  20 22 mph 1011.7mb 85f
9:50 5.5ft 8s 5s 20 25 mph 1011.7mb 85f
9:40  -   -   -  20 25 mph 1011.6mb 85f
9:30  -   -   -  18 22 mph 1011.6mb 85f
9:20  -   -   -  18 22 mph 1011.3mb 85f
9:10  -   -   -  18 22 mph 1011.3mb 85f
9:00  -   -   -  18 22 mph 1011.3mb 85f
8:50 5.5ft 7s 5s 20 22 mph 1011.2mb 85f
8:40 5.5ft  -  5s 20 25 mph 1011.2mb 85f
8:30  -   -   -  18 22 mph 1011.2mb 85f
8:20  -   -   -  18 22 mph 1011.2mb 85f
8:10  -   -   -  20 22 mph 1011.2mb 85f
8:00  -   -   -  18 22 mph 1011.2mb 85f
7:50 5ft 8s 5s 18 25 mph 1011.2mb 85f
7:40  -   -   -  18 22 mph 1011.1mb 85f
7:30  -   -   -  18 22 mph 1011mb 85f
7:20  -   -   -  18 22 mph 1010.9mb 85f
7:10  -   -   -  18 22 mph 1010.6mb 85f
7:00  -   -   -  18 22 mph 1010.5mb 85f
6:50 5.5ft 7s 5s 18 22 mph 1010.3mb 85f
6:40 5.5ft  -  5s 18 22 mph 1010.2mb 85f
6:30  -   -   -  18 25 mph 1010.1mb 85f
6:20  -   -   -  18 22 mph 1009.9mb 85f
6:10  -   -   -  18 22 mph 1009.8mb 85f
6:00  -   -   -  18 22 mph 1009.8mb 85f
5:40  -   -   -  18 22 mph 1009.6mb 85f
5:30  -   -   -  18 22 mph 1009.5mb 85f
5:20  -   -   -  18 25 mph 1009.5mb 85f
5:10  -   -   -  18 22 mph 1009.2mb 85f
5:00  -   -   -  18 22 mph 1009.2mb 85f
4:50 5ft 6s 5s 20 22 mph 1009.1mb 85f
4:40  -   -   -  18 22 mph 1009.1mb 85f
4:30  -   -   -  18 22 mph 1009mb 85f
4:20  -   -   -  16 20 mph 1008.9mb 85f
4:10  -   -   -  16 20 mph 1009mb 85f
4:00  -   -   -  16 20 mph 1009mb 85f
3:50 5.5ft 7s 5s 16 20 mph 1009mb 85f
3:40  -   -   -  18 22 mph 1009mb 85f
3:30  -   -   -  18 20 mph 1009mb 85f
3:20  -   -   -  18 22 mph 1009mb 85f
3:10  -   -   -  18 22 mph 1009mb 85f
3:00  -   -   -  18 22 mph 1009.1mb 85f
2:50 5ft 6s 5s 18 22 mph 1009.3mb 85f
2:40 5ft  -  5s 18 25 mph 1009.4mb 85f
2:30  -   -   -  18 22 mph 1009.4mb 85f
2:20  -   -   -  18 20 mph 1009.6mb 85f
2:10  -   -   -  18 22 mph 1009.7mb 85f
2:00  -   -   -  16 20 mph 1009.8mb 85f
1:50 5ft 8s 5s 18 22 mph 1009.8mb 85f
1:40  -   -   -  18 22 mph 1009.8mb 85f
1:30  -   -   -  18 22 mph 1009.9mb 85f
1:20  -   -   -  18 22 mph 1009.8mb 85f
1:10  -   -   -  18 25 mph 1009.9mb 85f
1:00  -   -   -  18 22 mph 1010.1mb 85f
12:50 5.5ft 8s 5s 18 22 mph 1010.3mb 85f
12:40 5.5ft  -  5s 16 20 mph 1010.4mb 85f
12:30  -   -   -  20 31 mph 1010.6mb 85f
12:20  -   -   -  20 29 mph 1010.8mb 85f
12:10  -   -   -  18 22 mph 1010.9mb 85f
12:00  -   -   -  16 20 mph 1011.1mb 85f
11:50 5.5ft 8s 5s 18 20 mph 1011.1mb 85f
11:40  -   -   -  16 20 mph 1011.2mb 85f
11:30  -   -   -  18 22 mph 1011.3mb 85f
11:20  -   -   -  20 25 mph 1011.2mb 85f
11:10  -   -   -  20 22 mph 1011.2mb 85f
11:00  -   -   -  18 25 mph 1011.3mb 85f
10:50 5.5ft 8s 5s 20 27 mph 1011.5mb 85f
10:40  -   -   -  20 31 mph 1011.4mb 85f
10:30  -   -   -  18 22 mph 1011.5mb 85f
10:20  -   -   -  20 22 mph 1011.5mb 85f
10:10  -   -   -  18 22 mph 1011.6mb 85f
10:00  -   -   -  18 20 mph 1011.6mb 85f
9:50 5.5ft 8s 5s 18 22 mph 1011.6mb 85f
9:40 5.5ft  -  5s 20 25 mph 1011.6mb 85f
9:30  -   -   -  20 25 mph 1011.7mb 85f
9:20  -   -   -  18 22 mph 1011.7mb 85f
9:10  -   -   -  20 25 mph 1011.5mb 85f
9:00  -   -   -  20 27 mph 1011.2mb 85f
8:50 5.5ft 8s 5s 20 25 mph 1011.2mb 85f
8:40 5.5ft  -  5s 20 25 mph 1011.2mb 85f
8:30  -   -   -  20 22 mph 1010.9mb 85f
8:20  -   -   -  18 22 mph 1010.9mb 85f
8:10  -   -   -  20 25 mph 1010.8mb 85f
8:00  -   -   -  20 22 mph 1010.8mb 85f
7:50 5ft 8s 5s 20 25 mph 1010.8mb 85f
7:40  -   -   -  20 25 mph 1010.7mb 85f
7:30  -   -   -  20 25 mph 1010.7mb 85f
7:20  -   -   -  18 22 mph 1010.6mb -
7:10  -   -   -  18 25 mph 1010.5mb 85f
7:00  -   -   -  18 25 mph 1010.2mb 85f
6:50 5ft 8s 5s 18 22 mph 1010.1mb 85f
6:40  -   -   -  18 25 mph 1009.9mb 85f
6:30  -   -   -  20 25 mph 1009.8mb 85f
6:20  -   -   -  20 25 mph 1009.6mb 85f
6:10  -   -   -  20 25 mph 1009.6mb 85f
6:00  -   -   -  20 22 mph 1009.5mb 85f
5:50 4.5ft 8s 5s 18 22 mph 1009.4mb 85f
5:40  -   -   -  18 20 mph 1009.4mb 85f
5:30  -   -   -  18 22 mph 1009.3mb -
5:20  -   -   -  18 22 mph 1009.2mb 85f
5:10  -   -   -  20 25 mph 1009.3mb 85f
5:00  -   -   -  18 22 mph 1009.2mb 85f
4:50 5ft 8s 5s 18 22 mph 1009.2mb 85f
4:40  -   -   -  18 22 mph 1009.2mb 85f
4:30  -   -   -  18 22 mph 1009mb 85f
4:20  -   -   -  18 22 mph 1009mb 85f
4:10  -   -   -  18 22 mph 1009mb 85f
4:00  -   -   -  18 20 mph 1009.1mb 85f
3:50 5ft 8s 6s 18 20 mph 1009.2mb 85f
3:40 5ft  -  6s 18 20 mph 1009.2mb 85f
3:30  -   -   -  16 20 mph 1009.2mb 85f
3:20  -   -   -  18 20 mph 1009.2mb 85f
3:10  -   -   -  18 20 mph 1009.2mb 85f
3:00  -   -   -  16 20 mph 1009.4mb 85f
2:50 5ft 8s 5s 18 20 mph 1009.3mb 85f
2:40 5ft  -  5s 18 20 mph 1009.4mb 85f
2:30  -   -   -  18 20 mph 1009.4mb 85f
2:20  -   -   -  18 22 mph 1009.5mb -
2:10  -   -   -  18 22 mph 1009.6mb 85f
2:00  -   -   -  18 22 mph 1009.7mb 85f
1:50 5ft 8s 5s 18 22 mph 1010mb 85f
1:40 5ft  -  5s 18 22 mph 1010.1mb 85f
1:30  -   -   -  20 27 mph 1010.1mb 85f
1:20  -   -   -  16 22 mph 1010.3mb -
1:10  -   -   -  16 20 mph 1010.3mb 85f
1:00  -   -   -  16 20 mph 1010.5mb 85f
12:50 5ft 8s 5s 16 20 mph 1010.6mb 85f
12:40 5ft  -  5s 16 20 mph 1010.8mb 85f
12:30  -   -   -  16 18 mph 1010.9mb 85f
12:20  -   -   -  16 20 mph 1010.9mb 85f
12:10  -   -   -  16 20 mph 1011mb 85f
12:00  -   -   -  16 20 mph 1011.1mb 85f
Do 08/17 11:50 5ft 8s 5s 16 20 mph 1011.1mb 85f
11:40  -   -   -  16 20 mph 1011.3mb 85f
11:30  -   -   -  18 25 mph 1011.5mb 85f
11:20  -   -   -  16 20 mph 1011.5mb 85f
11:10  -   -   -  16 18 mph 1011.5mb 85f
11:00  -   -   -  16 20 mph 1011.5mb 85f
10:50 6ft 8s 6s 16 20 mph 1011.6mb 85f
10:40  -   -   -  16 22 mph 1011.7mb 85f
10:30  -   -   -  16 20 mph 1011.7mb 85f
10:20  -   -   -  16 20 mph 1011.7mb 85f
10:10  -   -   -  18 20 mph 1011.8mb 85f
10:00  -   -   -  18 20 mph 1011.8mb 85f
9:50 6ft 8s 6s 16 20 mph 1011.7mb 85f
9:40 6ft  -  6s 16 20 mph 1011.7mb 85f
9:30  -   -   -  16 20 mph 1011.8mb 85f
9:20  -   -   -  16 18 mph 1011.6mb 85f
9:10  -   -   -  16 20 mph 1011.5mb 85f
9:00  -   -   -  16 20 mph 1011.5mb 85f
8:50 5.5ft  -  6s 16 20 mph 1011.5mb -
8:40  -   -   -  16 20 mph 1011.3mb 85f
8:30  -   -   -  18 20 mph 1011.3mb 85f
8:20  -   -   -  18 20 mph 1011.2mb 85f
8:10  -   -   -  16 20 mph 1011mb -
8:00  -   -   -  16 20 mph 1010.9mb 85f
7:50 5.5ft 7s 5s 16 18 mph 1010.8mb 85f
7:40  -   -   -  16 20 mph 1010.7mb 85f
7:30  -   -   -  16 20 mph 1010.7mb 85f
7:20  -   -   -  18 20 mph 1010.6mb 85f
7:10  -   -   -  18 20 mph 1010.4mb 85f
7:00  -   -   -  18 20 mph 1010.3mb 85f
6:50 6ft 8s 6s 16 20 mph 1010.1mb 85f
6:40  -   -   -  16 20 mph 1010.1mb 85f
6:30  -   -   -  18 22 mph 1010.1mb 85f
6:20  -   -   -  18 20 mph 1010mb 85f
6:10  -   -   -  18 20 mph 1009.9mb 85f
6:00  -   -   -  18 22 mph 1009.8mb 85f
5:50 6ft 8s 5s 18 22 mph 1009.8mb 85f
5:40  -   -   -  18 22 mph 1009.8mb 85f
5:30  -   -   -  18 22 mph 1009.7mb 85f
5:20  -   -   -  18 20 mph 1009.7mb 85f
5:10  -   -   -  16 20 mph 1009.6mb 85f
5:00  -   -   -  18 20 mph 1009.6mb 85f
4:50 6ft 8s 6s 18 22 mph 1009.5mb 86f
4:40 6ft  -  6s 18 22 mph 1009.4mb 86f
4:30  -   -   -  18 22 mph 1009.5mb 85f
4:20  -   -   -  18 20 mph 1009.5mb 85f
4:10  -   -   -  18 22 mph 1009.5mb 86f
4:00  -   -   -  18 20 mph 1009.4mb 86f
3:50 6ft 8s 6s 18 20 mph 1009.4mb 86f
3:40  -   -   -  18 22 mph 1009.3mb 86f
3:30  -   -   -  20 22 mph 1009.3mb 85f
3:20  -   -   -  18 22 mph 1009.4mb 86f
3:10  -   -   -  18 22 mph 1009.4mb 86f
3:00  -   -   -  18 22 mph 1009.5mb 85f
2:50 6ft 8s 5s 18 22 mph 1009.6mb 85f
2:40 6ft  -  5s 20 25 mph 1009.5mb 85f
2:30  -   -   -  20 25 mph 1009.6mb 85f
2:20  -   -   -  20 25 mph 1009.6mb 85f
2:10  -   -   -  20 25 mph 1009.8mb 85f
2:00  -   -   -  20 25 mph 1009.8mb 85f
1:50 6ft 8s 5s 20 22 mph 1009.8mb 85f
1:40 6ft  -  5s 20 25 mph 1010mb 85f
1:30  -   -   -  20 22 mph 1010.1mb 85f
1:20  -   -   -  20 25 mph 1010.2mb 85f
1:10  -   -   -  20 25 mph 1010.4mb 85f
1:00  -   -   -  18 22 mph 1010.4mb 85f
12:50 6.5ft 8s 5s 20 25 mph 1010.6mb 85f
12:40  -   -   -  20 25 mph 1010.7mb 85f
12:30  -   -   -  20 25 mph 1010.8mb 85f
12:20  -   -   -  20 22 mph 1010.9mb 85f
12:10  -   -   -  20 22 mph 1011mb 85f
12:00  -   -   -  18 25 mph 1011.1mb 85f
11:50 7ft 8s 6s 20 27 mph 1011.3mb 85f
11:40  -   -   -  20 25 mph 1011.4mb 85f
11:30  -   -   -  20 25 mph 1011.6mb 85f
11:20  -   -   -  20 25 mph 1011.7mb 85f
11:10  -   -   -  20 25 mph 1011.7mb 85f
11:00  -   -   -  22 27 mph 1011.8mb 85f
10:50 6.5ft 8s 5s 22 27 mph 1011.9mb 85f
10:40  -   -   -  22 27 mph 1012mb 85f
10:30  -   -   -  22 27 mph 1012mb 85f
10:20  -   -   -  22 27 mph 1012.1mb 85f
10:10  -   -   -  22 29 mph 1012.2mb 85f
10:00  -   -   -  20 25 mph 1012.2mb 85f
9:50 6.5ft 8s 5s 22 27 mph 1012.2mb 85f
9:40 6.5ft  -  5s 22 27 mph 1012.3mb 85f
9:30  -   -   -  25 29 mph 1012.2mb 85f
9:20  -   -   -  25 29 mph 1012.2mb 85f
9:10  -   -   -  22 27 mph 1012.2mb 85f
9:00  -   -   -  22 27 mph 1012.2mb 85f
8:50 6ft 8s 6s 22 29 mph 1012.2mb 85f
8:40  -   -   -  22 27 mph 1012.1mb 85f
8:30  -   -   -  22 27 mph 1012.2mb 85f
8:20  -   -   -  20 27 mph 1012.2mb 85f
8:10  -   -   -  20 25 mph 1012.2mb 85f
8:00  -   -   -  20 25 mph 1012.2mb 85f
7:50 6.5ft 8s 6s 20 22 mph 1012.1mb 85f
7:40  -   -   -  20 25 mph 1012mb 85f
7:30  -   -   -  18 25 mph 1012mb 85f
7:20  -   -   -  18 22 mph 1011.8mb -
7:10  -   -   -  20 25 mph 1011.7mb 85f
7:00  -   -   -  20 25 mph 1011.6mb 85f
6:50 6ft 8s 5s 20 25 mph 1011.3mb 85f
6:40 6ft  -  5s 20 25 mph 1011.2mb 85f
6:30  -   -   -  20 25 mph 1011.1mb 85f
6:20  -   -   -  20 25 mph 1011.2mb 85f
6:10  -   -   -  20 27 mph 1011.2mb 85f
6:00  -   -   -  20 25 mph 1011.2mb 85f
5:50 6.5ft 8s 6s 22 27 mph 1011.4mb 85f
5:40 6.5ft  -  6s 20 25 mph 1011.4mb 85f
5:30  -   -   -  20 27 mph 1011.4mb 85f
5:20  -   -   -  22 27 mph 1011.2mb 85f
5:10  -   -   -  20 27 mph 1011.2mb 85f
5:00  -   -   -  20 27 mph 1011.2mb 85f
4:50 7ft 8s 6s 20 25 mph 1011.2mb 85f
4:40  -   -   -  22 27 mph 1011.2mb 85f
4:30  -   -   -  20 27 mph 1011.3mb 85f
4:20  -   -   -  20 27 mph 1011.4mb 85f
4:10  -   -   -  20 25 mph 1011.3mb 85f
4:00  -   -   -  20 25 mph 1011.4mb 85f
3:50 7ft 8s 6s 20 25 mph 1011.4mb 85f
3:40  -   -   -  20 27 mph 1011.4mb 85f
3:30  -   -   -  18 22 mph 1011.5mb 85f
3:20  -   -   -  20 22 mph 1011.4mb -
3:10  -   -   -  18 22 mph 1011.3mb 85f
3:00  -   -   -  18 22 mph 1011.3mb 85f
2:50 6.5ft 8s 6s 16 22 mph 1011.3mb 85f
2:40 6.5ft  -  6s 18 22 mph 1011.2mb 85f
2:30  -   -   -  18 22 mph 1011.2mb 85f
2:20  -   -   -  20 27 mph 1011.4mb 85f
2:10  -   -   -  20 25 mph 1011.5mb 85f
2:00  -   -   -  20 27 mph 1011.6mb 85f
1:50 7ft 8s 6s 22 27 mph 1011.7mb 85f
1:40 7ft  -  6s 20 27 mph 1011.7mb 85f
1:30  -   -   -  22 27 mph 1011.7mb 85f
1:20  -   -   -  20 25 mph 1011.7mb 85f
1:10  -   -   -  20 25 mph 1011.8mb -
1:00  -   -   -  20 25 mph 1011.9mb 85f